This is the latest recevied weather packets stored in our database for station/object OE3TEC-15. If no packets are shown the sender has not sent any weather packets the latest 1 day(s).
| Time | Temp. | Humidity | Pressure | Rain* | Wind** | Luminosity | Snow |
|---|---|---|---|---|---|---|---|
| 1778026224 | 13.89° C | 73% | 1007.6 hPa | 0 mm | 0 m/s | 0 W/m² | - |
| 1778025617 | 14.44° C | 70% | 1007.6 hPa | 0 mm | 0 m/s | 0 W/m² | - |
| 1778025010 | 14.44° C | 72% | 1007.7 hPa | 0 mm | 0 m/s | 0 W/m² | - |
| 1778024402 | 13.89° C | 73% | 1007.6 hPa | 0 mm | 0 m/s | 0 W/m² | - |
| 1778023795 | 13.89° C | 71% | 1007.3 hPa | 0 mm | 0 m/s | 0 W/m² | - |
| 1778023187 | 13.33° C | 73% | 1007.4 hPa | 0 mm | 0 m/s | 0 W/m² | - |
| 1778022580 | 13.33° C | 73% | 1007.3 hPa | 0 mm | 0 m/s | 0 W/m² | - |
| 1778021973 | 12.78° C | 75% | 1007.2 hPa | 0 mm | 0 m/s | 0 W/m² | - |
| 1778021365 | 12.78° C | 74% | 1007.1 hPa | 0 mm | 0 m/s | 0 W/m² | - |
| 1778020758 | 12.78° C | 74% | 1006.8 hPa | 0 mm | 0 m/s | 0 W/m² | - |
| 1778020152 | 12.78° C | 73% | 1006.8 hPa | 0 mm | 0 m/s | 0 W/m² | - |
| 1778019545 | 12.78° C | 72% | 1006.6 hPa | 0 mm | 0 m/s | 0 W/m² | - |
| 1778018938 | 12.78° C | 72% | 1006.5 hPa | 0 mm | 0 m/s | 0 W/m² | - |
| 1778018331 | 13.89° C | 68% | 1006.2 hPa | 0 mm | 0 m/s | 0 W/m² | - |
| 1778017724 | 14.44° C | 64% | 1006.2 hPa | 0 mm | 0 m/s | 0 W/m² | - |
| 1778017115 | 15.56° C | 61% | 1005.9 hPa | 0 mm | 0 m/s | 0 W/m² | - |
| 1778016508 | 16.11° C | 59% | 1006.1 hPa | 0 mm | 0.89 m/s, 108° | 0 W/m² | - |
| 1778015901 | 16.11° C | 59% | 1005.8 hPa | 0 mm | 0.89 m/s, 94° | 0 W/m² | - |
| 1778015293 | 15.56° C | 61% | 1005.9 hPa | 0 mm | 0.45 m/s, 142° | 0 W/m² | - |
| 1778014686 | 15.56° C | 60% | 1005.5 hPa | 0 mm | 0 m/s | 0 W/m² | - |
| 1778014080 | 16.11° C | 59% | 1005.4 hPa | 0 mm | 0 m/s | 0 W/m² | - |
| 1778013472 | 16.67° C | 57% | 1005.5 hPa | 0 mm | 0.45 m/s, 148° | 0 W/m² | - |
| 1778012865 | 16.67° C | 57% | 1005.5 hPa | 0 mm | 0.45 m/s, 136° | 0 W/m² | - |
| 1778012258 | 16.67° C | 56% | 1005.1 hPa | 0 mm | 1.34 m/s, 84° | 0 W/m² | - |
| 1778011650 | 17.22° C | 55% | 1005.2 hPa | 0 mm | 1.34 m/s, 86° | 0 W/m² | - |
* Rain latest hour (hover to see other rain measurements)
** Current wind speed in m/s (hover to see current wind gust speed)